sensor_id;sensor_type;location;lat;lon;timestamp;pressure;altitude;pressure_sealevel;temperature;humidity
39897;BME280;25567;48.276;14.242;2023-02-02T00:01:54;98395.41;;;3.84;90.70
39897;BME280;25567;48.276;14.242;2023-02-02T00:04:25;98413.06;;;3.75;90.06
39897;BME280;25567;48.276;14.242;2023-02-02T00:06:54;98398.53;;;3.73;89.98
39897;BME280;25567;48.276;14.242;2023-02-02T00:09:26;98389.47;;;3.75;89.97
39897;BME280;25567;48.276;14.242;2023-02-02T00:11:57;98379.59;;;3.77;90.02
39897;BME280;25567;48.276;14.242;2023-02-02T00:14:25;98399.78;;;3.77;89.75
39897;BME280;25567;48.276;14.242;2023-02-02T00:16:57;98395.59;;;3.82;89.16
39897;BME280;25567;48.276;14.242;2023-02-02T00:19:29;98404.84;;;3.78;89.18
39897;BME280;25567;48.276;14.242;2023-02-02T00:21:57;98397.59;;;3.80;90.48
39897;BME280;25567;48.276;14.242;2023-02-02T00:24:24;98398.34;;;3.74;91.02
39897;BME280;25567;48.276;14.242;2023-02-02T00:26:56;98391.03;;;3.70;91.57
39897;BME280;25567;48.276;14.242;2023-02-02T00:29:28;98397.72;;;3.72;92.14
39897;BME280;25567;48.276;14.242;2023-02-02T00:31:57;98381.91;;;3.65;93.14
39897;BME280;25567;48.276;14.242;2023-02-02T00:34:25;98400.84;;;3.61;93.41
39897;BME280;25567;48.276;14.242;2023-02-02T00:36:53;98393.56;;;3.63;93.50
39897;BME280;25567;48.276;14.242;2023-02-02T00:39:23;98401.91;;;3.66;93.98
39897;BME280;25567;48.276;14.242;2023-02-02T00:41:55;98387.94;;;3.66;94.28
39897;BME280;25567;48.276;14.242;2023-02-02T00:44:23;98390.75;;;3.64;94.11
39897;BME280;25567;48.276;14.242;2023-02-02T00:47:06;98382.09;;;3.64;94.17
39897;BME280;25567;48.276;14.242;2023-02-02T00:49:33;98386.69;;;3.62;94.41
39897;BME280;25567;48.276;14.242;2023-02-02T00:52:03;98379.66;;;3.62;94.42
39897;BME280;25567;48.276;14.242;2023-02-02T00:54:31;98377.03;;;3.62;94.53
39897;BME280;25567;48.276;14.242;2023-02-02T00:56:59;98388.53;;;3.61;95.46
39897;BME280;25567;48.276;14.242;2023-02-02T00:59:26;98374.41;;;3.62;94.11
39897;BME280;25567;48.276;14.242;2023-02-02T01:01:54;98374.94;;;3.73;93.95
39897;BME280;25567;48.276;14.242;2023-02-02T01:04:24;98381.09;;;3.65;93.82
39897;BME280;25567;48.276;14.242;2023-02-02T01:06:52;98373.31;;;3.72;94.13
39897;BME280;25567;48.276;14.242;2023-02-02T01:09:18;98367.78;;;3.66;95.02
39897;BME280;25567;48.276;14.242;2023-02-02T01:11:45;98382.28;;;3.62;94.84
39897;BME280;25567;48.276;14.242;2023-02-02T01:14:12;98378.66;;;3.63;94.83
39897;BME280;25567;48.276;14.242;2023-02-02T01:16:39;98372.41;;;3.64;94.93
39897;BME280;25567;48.276;14.242;2023-02-02T01:19:06;98377.03;;;3.62;95.34
39897;BME280;25567;48.276;14.242;2023-02-02T01:21:33;98379.84;;;3.61;95.62
39897;BME280;25567;48.276;14.242;2023-02-02T01:24:02;98378.03;;;3.61;94.61
39897;BME280;25567;48.276;14.242;2023-02-02T01:26:30;98382.47;;;3.61;94.78
39897;BME280;25567;48.276;14.242;2023-02-02T01:28:57;98349.72;;;3.57;95.41
39897;BME280;25567;48.276;14.242;2023-02-02T01:31:26;98361.03;;;3.57;94.84
39897;BME280;25567;48.276;14.242;2023-02-02T01:33:54;98352.97;;;3.59;94.31
39897;BME280;25567;48.276;14.242;2023-02-02T01:36:23;98346.16;;;3.64;93.55
39897;BME280;25567;48.276;14.242;2023-02-02T01:38:51;98365.38;;;3.65;93.56
39897;BME280;25567;48.276;14.242;2023-02-02T01:41:22;98354.03;;;3.64;93.62
39897;BME280;25567;48.276;14.242;2023-02-02T01:43:52;98358.56;;;3.71;92.55
39897;BME280;25567;48.276;14.242;2023-02-02T01:49:06;98359.19;;;3.73;92.15
39897;BME280;25567;48.276;14.242;2023-02-02T01:51:50;98352.72;;;3.75;91.79
39897;BME280;25567;48.276;14.242;2023-02-02T01:54:23;98362.69;;;3.80;90.48
39897;BME280;25567;48.276;14.242;2023-02-02T01:56:58;98362.31;;;3.83;90.37
39897;BME280;25567;48.276;14.242;2023-02-02T01:59:28;98367.34;;;3.84;90.25
39897;BME280;25567;48.276;14.242;2023-02-02T02:01:57;98372.44;;;3.86;91.28
39897;BME280;25567;48.276;14.242;2023-02-02T02:04:27;98382.94;;;3.86;91.36
39897;BME280;25567;48.276;14.242;2023-02-02T02:06:58;98378.69;;;3.85;91.81
39897;BME280;25567;48.276;14.242;2023-02-02T02:09:28;98397.06;;;3.85;92.83
39897;BME280;25567;48.276;14.242;2023-02-02T02:11:56;98395.81;;;3.81;93.14
39897;BME280;25567;48.276;14.242;2023-02-02T02:14:24;98410.09;;;3.78;94.59
39897;BME280;25567;48.276;14.242;2023-02-02T02:23:54;98487.81;;;3.64;97.97
39897;BME280;25567;48.276;14.242;2023-02-02T02:40:23;98521.03;;;1.96;100.00
39897;BME280;25567;48.276;14.242;2023-02-02T02:42:55;98536.25;;;1.93;100.00
39897;BME280;25567;48.276;14.242;2023-02-02T02:45:26;98532.16;;;1.90;100.00
39897;BME280;25567;48.276;14.242;2023-02-02T02:47:54;98529.78;;;1.80;100.00
39897;BME280;25567;48.276;14.242;2023-02-02T02:50:23;98527.72;;;1.59;100.00
39897;BME280;25567;48.276;14.242;2023-02-02T02:52:58;98528.22;;;1.55;100.00
39897;BME280;25567;48.276;14.242;2023-02-02T02:58:54;98531.19;;;1.43;100.00
39897;BME280;25567;48.276;14.242;2023-02-02T03:01:21;98540.03;;;1.34;100.00
39897;BME280;25567;48.276;14.242;2023-02-02T03:04:13;98543.34;;;1.20;100.00
39897;BME280;25567;48.276;14.242;2023-02-02T03:06:51;98530.44;;;1.02;100.00
39897;BME280;25567;48.276;14.242;2023-02-02T03:09:23;98535.03;;;0.99;100.00
39897;BME280;25567;48.276;14.242;2023-02-02T03:11:51;98529.78;;;0.91;100.00
39897;BME280;25567;48.276;14.242;2023-02-02T03:14:18;98526.03;;;0.94;100.00
39897;BME280;25567;48.276;14.242;2023-02-02T03:16:46;98526.72;;;0.96;100.00
39897;BME280;25567;48.276;14.242;2023-02-02T03:19:16;98518.03;;;0.95;100.00
39897;BME280;25567;48.276;14.242;2023-02-02T03:21:44;98526.56;;;0.89;100.00
39897;BME280;25567;48.276;14.242;2023-02-02T03:24:11;98523.94;;;0.89;100.00
39897;BME280;25567;48.276;14.242;2023-02-02T03:26:40;98519.84;;;0.87;100.00
39897;BME280;25567;48.276;14.242;2023-02-02T03:29:09;98501.88;;;0.83;100.00
39897;BME280;25567;48.276;14.242;2023-02-02T03:31:37;98511.34;;;0.85;100.00
39897;BME280;25567;48.276;14.242;2023-02-02T03:34:05;98509.59;;;0.85;100.00
39897;BME280;25567;48.276;14.242;2023-02-02T03:36:33;98520.50;;;0.80;100.00
39897;BME280;25567;48.276;14.242;2023-02-02T03:39:00;98523.78;;;0.91;100.00
39897;BME280;25567;48.276;14.242;2023-02-02T03:41:29;98529.63;;;0.85;100.00
39897;BME280;25567;48.276;14.242;2023-02-02T03:43:57;98531.63;;;0.82;100.00
39897;BME280;25567;48.276;14.242;2023-02-02T03:46:25;98530.81;;;0.90;100.00
39897;BME280;25567;48.276;14.242;2023-02-02T03:48:54;98530.94;;;0.80;100.00
39897;BME280;25567;48.276;14.242;2023-02-02T03:51:21;98535.84;;;0.75;100.00
39897;BME280;25567;48.276;14.242;2023-02-02T03:53:49;98542.38;;;0.71;100.00
39897;BME280;25567;48.276;14.242;2023-02-02T03:56:16;98543.50;;;0.69;100.00
39897;BME280;25567;48.276;14.242;2023-02-02T03:58:45;98547.59;;;0.63;100.00
39897;BME280;25567;48.276;14.242;2023-02-02T04:01:13;98551.97;;;0.54;100.00
39897;BME280;25567;48.276;14.242;2023-02-02T04:03:42;98562.75;;;0.51;100.00
39897;BME280;25567;48.276;14.242;2023-02-02T04:06:12;98560.47;;;0.48;100.00
39897;BME280;25567;48.276;14.242;2023-02-02T04:08:40;98563.09;;;0.48;100.00
39897;BME280;25567;48.276;14.242;2023-02-02T04:11:09;98561.44;;;0.47;100.00
39897;BME280;25567;48.276;14.242;2023-02-02T04:13:37;98562.75;;;0.43;100.00
39897;BME280;25567;48.276;14.242;2023-02-02T04:16:06;98553.13;;;0.52;100.00
39897;BME280;25567;48.276;14.242;2023-02-02T04:18:37;98554.41;;;0.47;100.00
39897;BME280;25567;48.276;14.242;2023-02-02T04:21:05;98552.78;;;0.38;100.00
39897;BME280;25567;48.276;14.242;2023-02-02T04:23:34;98555.56;;;0.37;100.00
39897;BME280;25567;48.276;14.242;2023-02-02T04:26:02;98552.94;;;0.37;100.00
39897;BME280;25567;48.276;14.242;2023-02-02T04:28:31;98548.22;;;0.32;100.00
39897;BME280;25567;48.276;14.242;2023-02-02T04:30:59;98546.41;;;0.24;100.00
39897;BME280;25567;48.276;14.242;2023-02-02T04:33:27;98550.66;;;0.33;100.00
39897;BME280;25567;48.276;14.242;2023-02-02T04:35:55;98545.75;;;0.30;100.00
39897;BME280;25567;48.276;14.242;2023-02-02T04:38:24;98545.78;;;0.47;100.00
39897;BME280;25567;48.276;14.242;2023-02-02T04:40:51;98546.75;;;0.38;100.00
39897;BME280;25567;48.276;14.242;2023-02-02T04:43:19;98552.31;;;0.35;100.00
39897;BME280;25567;48.276;14.242;2023-02-02T04:45:47;98554.41;;;0.39;100.00
39897;BME280;25567;48.276;14.242;2023-02-02T04:48:15;98563.03;;;0.31;100.00
39897;BME280;25567;48.276;14.242;2023-02-02T04:50:44;98571.53;;;0.33;100.00
39897;BME280;25567;48.276;14.242;2023-02-02T04:53:13;98566.31;;;0.33;100.00
39897;BME280;25567;48.276;14.242;2023-02-02T04:55:42;98571.84;;;0.30;100.00
39897;BME280;25567;48.276;14.242;2023-02-02T04:58:10;98583.22;;;0.21;100.00
39897;BME280;25567;48.276;14.242;2023-02-02T05:00:38;98592.41;;;0.25;100.00
39897;BME280;25567;48.276;14.242;2023-02-02T05:03:06;98604.28;;;0.28;100.00
39897;BME280;25567;48.276;14.242;2023-02-02T05:05:34;98604.16;;;0.29;100.00
39897;BME280;25567;48.276;14.242;2023-02-02T05:08:03;98607.03;;;0.18;100.00
39897;BME280;25567;48.276;14.242;2023-02-02T05:10:31;98617.81;;;0.23;100.00
39897;BME280;25567;48.276;14.242;2023-02-02T05:12:59;98617.66;;;0.25;100.00
39897;BME280;25567;48.276;14.242;2023-02-02T05:15:28;98605.72;;;0.22;100.00
39897;BME280;25567;48.276;14.242;2023-02-02T05:17:57;98598.94;;;0.29;100.00
39897;BME280;25567;48.276;14.242;2023-02-02T05:20:24;98604.44;;;0.26;100.00
39897;BME280;25567;48.276;14.242;2023-02-02T05:22:51;98586.53;;;0.40;100.00
39897;BME280;25567;48.276;14.242;2023-02-02T05:25:20;98594.72;;;0.45;100.00
39897;BME280;25567;48.276;14.242;2023-02-02T05:27:47;98609.38;;;0.38;100.00
39897;BME280;25567;48.276;14.242;2023-02-02T05:30:14;98575.78;;;0.43;100.00
39897;BME280;25567;48.276;14.242;2023-02-02T05:32:42;98614.09;;;0.34;100.00
39897;BME280;25567;48.276;14.242;2023-02-02T05:35:10;98632.00;;;0.29;100.00
39897;BME280;25567;48.276;14.242;2023-02-02T05:37:37;98642.59;;;0.27;100.00
39897;BME280;25567;48.276;14.242;2023-02-02T05:40:04;98633.47;;;0.23;100.00
39897;BME280;25567;48.276;14.242;2023-02-02T05:42:32;98628.25;;;0.23;100.00
39897;BME280;25567;48.276;14.242;2023-02-02T05:45:00;98617.66;;;0.33;100.00
39897;BME280;25567;48.276;14.242;2023-02-02T05:47:32;98614.59;;;0.38;100.00
39897;BME280;25567;48.276;14.242;2023-02-02T05:50:03;98612.34;;;0.43;100.00
39897;BME280;25567;48.276;14.242;2023-02-02T05:52:32;98630.09;;;0.47;100.00
39897;BME280;25567;48.276;14.242;2023-02-02T05:55:00;98618.69;;;0.48;100.00
39897;BME280;25567;48.276;14.242;2023-02-02T05:57:28;98626.88;;;0.62;100.00
39897;BME280;25567;48.276;14.242;2023-02-02T05:59:57;98636.19;;;0.64;100.00
39897;BME280;25567;48.276;14.242;2023-02-02T06:02:26;98638.28;;;0.61;100.00
39897;BME280;25567;48.276;14.242;2023-02-02T06:04:54;98630.63;;;0.51;100.00
39897;BME280;25567;48.276;14.242;2023-02-02T06:07:21;98633.56;;;0.56;100.00
39897;BME280;25567;48.276;14.242;2023-02-02T06:09:51;98632.72;;;0.47;100.00
39897;BME280;25567;48.276;14.242;2023-02-02T06:12:19;98648.03;;;0.42;100.00
39897;BME280;25567;48.276;14.242;2023-02-02T06:14:46;98659.94;;;0.45;100.00
39897;BME280;25567;48.276;14.242;2023-02-02T06:17:13;98639.44;;;0.58;100.00
39897;BME280;25567;48.276;14.242;2023-02-02T06:19:41;98633.56;;;0.56;100.00
39897;BME280;25567;48.276;14.242;2023-02-02T06:22:08;98636.50;;;0.53;100.00
39897;BME280;25567;48.276;14.242;2023-02-02T06:24:37;98644.94;;;0.39;100.00
39897;BME280;25567;48.276;14.242;2023-02-02T06:27:04;98645.41;;;0.34;100.00
39897;BME280;25567;48.276;14.242;2023-02-02T06:29:31;98656.50;;;0.36;100.00
39897;BME280;25567;48.276;14.242;2023-02-02T06:31:59;98674.09;;;0.34;100.00
39897;BME280;25567;48.276;14.242;2023-02-02T06:34:27;98667.13;;;0.35;100.00
39897;BME280;25567;48.276;14.242;2023-02-02T06:36:55;98682.44;;;0.38;100.00
39897;BME280;25567;48.276;14.242;2023-02-02T06:39:24;98655.41;;;0.47;100.00
39897;BME280;25567;48.276;14.242;2023-02-02T06:41:51;98667.13;;;0.43;100.00
39897;BME280;25567;48.276;14.242;2023-02-02T06:44:19;98667.44;;;0.40;100.00
39897;BME280;25567;48.276;14.242;2023-02-02T06:46:47;98682.47;;;0.46;100.00
39897;BME280;25567;48.276;14.242;2023-02-02T06:49:16;98678.53;;;0.42;100.00
39897;BME280;25567;48.276;14.242;2023-02-02T06:51:46;98674.81;;;0.44;100.00
39897;BME280;25567;48.276;14.242;2023-02-02T06:54:14;98682.78;;;0.35;100.00
39897;BME280;25567;48.276;14.242;2023-02-02T06:56:42;98688.63;;;0.37;100.00
39897;BME280;25567;48.276;14.242;2023-02-02T06:59:10;98691.09;;;0.38;100.00
39897;BME280;25567;48.276;14.242;2023-02-02T07:01:38;98688.28;;;0.31;100.00
39897;BME280;25567;48.276;14.242;2023-02-02T07:04:05;98688.97;;;0.42;100.00
39897;BME280;25567;48.276;14.242;2023-02-02T07:06:33;98691.44;;;0.43;100.00
39897;BME280;25567;48.276;14.242;2023-02-02T07:09:01;98688.66;;;0.45;100.00
39897;BME280;25567;48.276;14.242;2023-02-02T07:11:30;98681.28;;;0.32;100.00
39897;BME280;25567;48.276;14.242;2023-02-02T07:14:02;98677.88;;;0.40;100.00
39897;BME280;25567;48.276;14.242;2023-02-02T07:16:30;98673.94;;;0.36;100.00
39897;BME280;25567;48.276;14.242;2023-02-02T07:18:58;98694.97;;;0.34;100.00
39897;BME280;25567;48.276;14.242;2023-02-02T07:21:29;98680.28;;;0.33;100.00
39897;BME280;25567;48.276;14.242;2023-02-02T07:24:02;98674.59;;;0.29;100.00
39897;BME280;25567;48.276;14.242;2023-02-02T07:26:33;98695.94;;;0.33;100.00
39897;BME280;25567;48.276;14.242;2023-02-02T07:29:02;98693.50;;;0.31;100.00
39897;BME280;25567;48.276;14.242;2023-02-02T07:31:32;98678.97;;;0.29;100.00
39897;BME280;25567;48.276;14.242;2023-02-02T07:34:03;98662.97;;;0.24;100.00
39897;BME280;25567;48.276;14.242;2023-02-02T07:36:32;98670.69;;;0.33;100.00
39897;BME280;25567;48.276;14.242;2023-02-02T07:39:03;98686.19;;;0.35;100.00
39897;BME280;25567;48.276;14.242;2023-02-02T07:41:33;98689.59;;;0.36;100.00
39897;BME280;25567;48.276;14.242;2023-02-02T07:44:01;98674.59;;;0.29;100.00
39897;BME280;25567;48.276;14.242;2023-02-02T07:46:30;98681.59;;;0.37;100.00
39897;BME280;25567;48.276;14.242;2023-02-02T07:48:59;98688.31;;;0.40;100.00
39897;BME280;25567;48.276;14.242;2023-02-02T07:51:26;98674.44;;;0.39;100.00
39897;BME280;25567;48.276;14.242;2023-02-02T07:53:55;98686.41;;;0.50;100.00
39897;BME280;25567;48.276;14.242;2023-02-02T07:56:26;98681.84;;;0.52;100.00
39897;BME280;25567;48.276;14.242;2023-02-02T07:58:55;98679.59;;;0.57;100.00
39897;BME280;25567;48.276;14.242;2023-02-02T08:01:23;98681.19;;;0.58;100.00
39897;BME280;25567;48.276;14.242;2023-02-02T08:03:55;98684.94;;;0.56;100.00
39897;BME280;25567;48.276;14.242;2023-02-02T08:06:26;98692.81;;;0.64;100.00
39897;BME280;25567;48.276;14.242;2023-02-02T08:08:55;98698.84;;;0.64;100.00
39897;BME280;25567;48.276;14.242;2023-02-02T08:11:25;98692.84;;;0.72;100.00
39897;BME280;25567;48.276;14.242;2023-02-02T08:13:57;98698.88;;;0.73;100.00
39897;BME280;25567;48.276;14.242;2023-02-02T08:16:26;98702.94;;;0.75;100.00
39897;BME280;25567;48.276;14.242;2023-02-02T08:18:59;98688.94;;;0.76;100.00
39897;BME280;25567;48.276;14.242;2023-02-02T08:21:28;98696.94;;;0.75;100.00
39897;BME280;25567;48.276;14.242;2023-02-02T08:23:56;98699.88;;;0.80;100.00
39897;BME280;25567;48.276;14.242;2023-02-02T08:26:28;98701.53;;;0.81;100.00
39897;BME280;25567;48.276;14.242;2023-02-02T08:28:59;98696.13;;;0.82;100.00
39897;BME280;25567;48.276;14.242;2023-02-02T08:31:30;98701.53;;;0.81;100.00
39897;BME280;25567;48.276;14.242;2023-02-02T08:33:59;98710.97;;;0.82;100.00
39897;BME280;25567;48.276;14.242;2023-02-02T08:36:28;98710.16;;;0.81;100.00
39897;BME280;25567;48.276;14.242;2023-02-02T08:39:00;98702.78;;;0.77;100.00
39897;BME280;25567;48.276;14.242;2023-02-02T08:41:29;98705.91;;;0.80;100.00
39897;BME280;25567;48.276;14.242;2023-02-02T08:43:57;98714.06;;;0.77;100.00
39897;BME280;25567;48.276;14.242;2023-02-02T08:46:26;98715.22;;;0.75;100.00
39897;BME280;25567;48.276;14.242;2023-02-02T08:48:56;98716.53;;;0.79;100.00
39897;BME280;25567;48.276;14.242;2023-02-02T08:51:24;98726.97;;;0.79;100.00
39897;BME280;25567;48.276;14.242;2023-02-02T08:53:53;98728.09;;;0.76;100.00
39897;BME280;25567;48.276;14.242;2023-02-02T08:56:21;98720.78;;;0.80;100.00
39897;BME280;25567;48.276;14.242;2023-02-02T08:58:52;98727.78;;;0.79;100.00
39897;BME280;25567;48.276;14.242;2023-02-02T09:01:23;98727.63;;;0.81;100.00
39897;BME280;25567;48.276;14.242;2023-02-02T09:03:54;98733.66;;;0.81;100.00
39897;BME280;25567;48.276;14.242;2023-02-02T09:06:28;98731.56;;;0.85;100.00
39897;BME280;25567;48.276;14.242;2023-02-02T09:08:58;98727.94;;;0.86;100.00
39897;BME280;25567;48.276;14.242;2023-02-02T09:11:26;98734.19;;;0.85;100.00
39897;BME280;25567;48.276;14.242;2023-02-02T09:13:57;98742.81;;;0.86;100.00
39897;BME280;25567;48.276;14.242;2023-02-02T09:16:26;98735.94;;;0.85;100.00
39897;BME280;25567;48.276;14.242;2023-02-02T09:18:55;98743.94;;;0.83;100.00
39897;BME280;25567;48.276;14.242;2023-02-02T09:21:23;98742.00;;;0.85;100.00
39897;BME280;25567;48.276;14.242;2023-02-02T09:23:52;98753.78;;;0.89;100.00
39897;BME280;25567;48.276;14.242;2023-02-02T09:26:26;98764.22;;;0.89;100.00
39897;BME280;25567;48.276;14.242;2023-02-02T09:28:57;98767.78;;;0.88;100.00
39897;BME280;25567;48.276;14.242;2023-02-02T09:31:31;98759.81;;;0.90;100.00
39897;BME280;25567;48.276;14.242;2023-02-02T09:34:00;98758.66;;;0.92;100.00
39897;BME280;25567;48.276;14.242;2023-02-02T09:36:29;98756.06;;;0.92;100.00
39897;BME280;25567;48.276;14.242;2023-02-02T09:38:58;98761.63;;;0.97;100.00
39897;BME280;25567;48.276;14.242;2023-02-02T09:41:38;98763.91;;;1.00;100.00
39897;BME280;25567;48.276;14.242;2023-02-02T09:50:16;98766.34;;;1.02;100.00
39897;BME280;25567;48.276;14.242;2023-02-02T09:52:50;98759.00;;;0.97;100.00
39897;BME280;25567;48.276;14.242;2023-02-02T10:03:36;98779.09;;;0.97;100.00
39897;BME280;25567;48.276;14.242;2023-02-02T10:08:54;98774.41;;;1.09;100.00
39897;BME280;25567;48.276;14.242;2023-02-02T10:11:30;98766.56;;;1.09;100.00
39897;BME280;25567;48.276;14.242;2023-02-02T10:14:08;98772.44;;;1.11;100.00
39897;BME280;25567;48.276;14.242;2023-02-02T10:16:39;98771.28;;;1.05;100.00
39897;BME280;25567;48.276;14.242;2023-02-02T10:19:10;98763.47;;;1.13;100.00
39897;BME280;25567;48.276;14.242;2023-02-02T10:21:53;98753.50;;;1.17;100.00
39897;BME280;25567;48.276;14.242;2023-02-02T10:24:26;98776.34;;;1.15;100.00
39897;BME280;25567;48.276;14.242;2023-02-02T10:26:58;98772.16;;;1.22;100.00
39897;BME280;25567;48.276;14.242;2023-02-02T10:32:23;98771.47;;;1.28;100.00
39897;BME280;25567;48.276;14.242;2023-02-02T10:37:57;98775.41;;;1.32;100.00
39897;BME280;25567;48.276;14.242;2023-02-02T10:40:43;98771.81;;;1.33;100.00
39897;BME280;25567;48.276;14.242;2023-02-02T10:46:20;98762.50;;;1.39;100.00
39897;BME280;25567;48.276;14.242;2023-02-02T10:48:49;98763.16;;;1.33;100.00
39897;BME280;25567;48.276;14.242;2023-02-02T10:51:22;98766.94;;;1.39;100.00
39897;BME280;25567;48.276;14.242;2023-02-02T10:53:55;98765.47;;;1.36;100.00
39897;BME280;25567;48.276;14.242;2023-02-02T10:56:34;98763.81;;;1.35;100.00
39897;BME280;25567;48.276;14.242;2023-02-02T10:59:09;98760.41;;;1.35;100.00
39897;BME280;25567;48.276;14.242;2023-02-02T11:01:37;98767.44;;;1.34;100.00
39897;BME280;25567;48.276;14.242;2023-02-02T11:04:05;98777.38;;;1.39;100.00
39897;BME280;25567;48.276;14.242;2023-02-02T11:06:48;98770.34;;;1.39;100.00
39897;BME280;25567;48.276;14.242;2023-02-02T11:09:20;98778.06;;;1.41;100.00
39897;BME280;25567;48.276;14.242;2023-02-02T11:11:53;98774.13;;;1.45;100.00
39897;BME280;25567;48.276;14.242;2023-02-02T11:14:36;98777.22;;;1.40;100.00
39897;BME280;25567;48.276;14.242;2023-02-02T11:17:22;98780.66;;;1.41;100.00
39897;BME280;25567;48.276;14.242;2023-02-02T11:19:50;98786.69;;;1.41;100.00
39897;BME280;25567;48.276;14.242;2023-02-02T11:22:30;98788.81;;;1.38;100.00
39897;BME280;25567;48.276;14.242;2023-02-02T11:25:03;98783.91;;;1.35;100.00
39897;BME280;25567;48.276;14.242;2023-02-02T11:27:34;98795.00;;;1.37;100.00
39897;BME280;25567;48.276;14.242;2023-02-02T11:30:26;98791.75;;;1.35;100.00
39897;BME280;25567;48.276;14.242;2023-02-02T11:32:55;98791.09;;;1.32;100.00
39897;BME280;25567;48.276;14.242;2023-02-02T11:35:24;98779.81;;;1.32;100.00
39897;BME280;25567;48.276;14.242;2023-02-02T11:37:58;98776.25;;;1.33;100.00
39897;BME280;25567;48.276;14.242;2023-02-02T11:40:29;98781.31;;;1.35;100.00
39897;BME280;25567;48.276;14.242;2023-02-02T11:43:00;98780.66;;;1.41;100.00
39897;BME280;25567;48.276;14.242;2023-02-02T11:45:36;98775.56;;;1.39;100.00
39897;BME280;25567;48.276;14.242;2023-02-02T11:50:51;98777.03;;;1.33;100.00
39897;BME280;25567;48.276;14.242;2023-02-02T11:53:30;98791.91;;;1.33;100.00
39897;BME280;25567;48.276;14.242;2023-02-02T11:56:06;98791.75;;;1.43;100.00
39897;BME280;25567;48.276;14.242;2023-02-02T12:01:29;98796.97;;;1.26;100.00
39897;BME280;25567;48.276;14.242;2023-02-02T12:04:00;98790.44;;;1.22;100.00
39897;BME280;25567;48.276;14.242;2023-02-02T12:06:37;98787.13;;;1.12;100.00
39897;BME280;25567;48.276;14.242;2023-02-02T12:11:46;98784.97;;;1.07;100.00
39897;BME280;25567;48.276;14.242;2023-02-02T12:25:37;98787.94;;;1.04;100.00
39897;BME280;25567;48.276;14.242;2023-02-02T12:33:40;98784.50;;;1.04;100.00
39897;BME280;25567;48.276;14.242;2023-02-02T12:36:18;98783.19;;;0.99;100.00
39897;BME280;25567;48.276;14.242;2023-02-02T12:57:01;98801.91;;;0.87;100.00
39897;BME280;25567;48.276;14.242;2023-02-02T12:59:56;98798.53;;;0.94;100.00
39897;BME280;25567;48.276;14.242;2023-02-02T13:02:35;98798.00;;;0.91;100.00
39897;BME280;25567;48.276;14.242;2023-02-02T13:08:11;98798.00;;;0.91;100.00
39897;BME280;25567;48.276;14.242;2023-02-02T13:10:43;98799.59;;;0.83;100.00
39897;BME280;25567;48.276;14.242;2023-02-02T13:13:24;98799.94;;;0.89;100.00
39897;BME280;25567;48.276;14.242;2023-02-02T13:15:59;98796.69;;;0.87;100.00
39897;BME280;25567;48.276;14.242;2023-02-02T13:18:39;98801.25;;;0.85;100.00
39897;BME280;25567;48.276;14.242;2023-02-02T13:21:13;98804.19;;;0.81;100.00
39897;BME280;25567;48.276;14.242;2023-02-02T13:23:50;98806.09;;;0.79;100.00
39897;BME280;25567;48.276;14.242;2023-02-02T13:26:21;98798.34;;;0.88;100.00
39897;BME280;25567;48.276;14.242;2023-02-02T13:28:54;98805.69;;;0.92;100.00
39897;BME280;25567;48.276;14.242;2023-02-02T13:31:42;98802.69;;;0.79;100.00
39897;BME280;25567;48.276;14.242;2023-02-02T13:34:23;98808.59;;;0.81;100.00
39897;BME280;25567;48.276;14.242;2023-02-02T13:36:56;98814.78;;;0.80;100.00
39897;BME280;25567;48.276;14.242;2023-02-02T13:39:35;98810.00;;;0.75;100.00
39897;BME280;25567;48.276;14.242;2023-02-02T13:42:05;98812.28;;;0.70;100.00
39897;BME280;25567;48.276;14.242;2023-02-02T13:44:51;98815.03;;;0.69;100.00
39897;BME280;25567;48.276;14.242;2023-02-02T13:47:37;98814.22;;;0.68;100.00
39897;BME280;25567;48.276;14.242;2023-02-02T13:50:14;98822.59;;;0.72;100.00
39897;BME280;25567;48.276;14.242;2023-02-02T14:00:42;98828.41;;;0.65;100.00
39897;BME280;25567;48.276;14.242;2023-02-02T14:03:39;98833.44;;;0.59;100.00
39897;BME280;25567;48.276;14.242;2023-02-02T14:06:11;98842.72;;;0.53;100.00
39897;BME280;25567;48.276;14.242;2023-02-02T14:08:59;98833.41;;;0.51;100.00
39897;BME280;25567;48.276;14.242;2023-02-02T14:11:30;98831.25;;;0.46;100.00
39897;BME280;25567;48.276;14.242;2023-02-02T14:14:16;98842.84;;;0.52;100.00
39897;BME280;25567;48.276;14.242;2023-02-02T14:24:45;98853.72;;;0.39;100.00
39897;BME280;25567;48.276;14.242;2023-02-02T14:27:41;98857.34;;;0.46;100.00
39897;BME280;25567;48.276;14.242;2023-02-02T14:30:25;98854.22;;;0.42;100.00
39897;BME280;25567;48.276;14.242;2023-02-02T14:33:18;98852.88;;;0.38;100.00
39897;BME280;25567;48.276;14.242;2023-02-02T14:44:06;98864.91;;;0.31;100.00
39897;BME280;25567;48.276;14.242;2023-02-02T14:46:38;98874.50;;;0.30;100.00
39897;BME280;25567;48.276;14.242;2023-02-02T14:49:10;98868.03;;;0.35;100.00
39897;BME280;25567;48.276;14.242;2023-02-02T14:51:53;98881.38;;;0.31;100.00
39897;BME280;25567;48.276;14.242;2023-02-02T14:54:29;98878.59;;;0.33;100.00
39897;BME280;25567;48.276;14.242;2023-02-02T14:57:02;98881.59;;;0.38;100.00
39897;BME280;25567;48.276;14.242;2023-02-02T14:59:35;98887.34;;;0.42;100.00
39897;BME280;25567;48.276;14.242;2023-02-02T15:04:45;98891.59;;;0.25;100.00
39897;BME280;25567;48.276;14.242;2023-02-02T15:07:35;98891.81;;;0.31;100.00
39897;BME280;25567;48.276;14.242;2023-02-02T15:10:03;98893.25;;;0.26;100.00
39897;BME280;25567;48.276;14.242;2023-02-02T15:15:18;98901.66;;;0.20;100.00
39897;BME280;25567;48.276;14.242;2023-02-02T15:20:39;98903.47;;;0.19;100.00
39897;BME280;25567;48.276;14.242;2023-02-02T15:23:26;98913.06;;;0.19;100.00
39897;BME280;25567;48.276;14.242;2023-02-02T15:26:03;98907.41;;;0.23;100.00